Time;durP1;ratioP1;P1;durP2;ratioP2;P2;SDS_P1;SDS_P2;PMS_P1;PMS_P2;Temp;Humidity;BMP_temperature;BMP_pressure;BME280_temperature;BME280_humidity;BME280_pressure;Samples;Min_cycle;Max_cycle;Signal;HPM_P1;HPM_P2
2022/12/19 00:02:02;;;;;;;7.33;6.13;;;;;;;0.17;75.38;101091.16;5070424;28;20269;-77
2022/12/19 00:04:27;;;;;;;7.80;7.07;;;;;;;0.16;75.28;101111.03;5070313;28;20182;-76
2022/12/19 00:06:56;;;;;;;5.00;3.07;;;;;;;0.23;75.19;101103.69;5070450;28;20206;-78
2022/12/19 00:09:21;;;;;;;7.83;5.63;;;;;;;0.24;75.36;101102.63;5070444;28;20552;-78
2022/12/19 00:11:47;;;;;;;5.40;4.90;;;;;;;0.29;75.56;101096.59;5070475;28;20417;-76
2022/12/19 00:14:12;;;;;;;11.87;8.57;;;;;;;0.36;75.45;101094.63;5069755;28;20173;-77
2022/12/19 00:16:38;;;;;;;6.40;5.80;;;;;;;0.36;75.22;101091.13;5070352;28;20181;-76
2022/12/19 00:19:03;;;;;;;9.80;8.80;;;;;;;0.32;75.69;101087.25;5068994;28;20170;-78
2022/12/19 00:21:30;;;;;;;8.03;5.60;;;;;;;0.29;75.50;101083.16;5070394;28;20263;-78
2022/12/19 00:23:57;;;;;;;7.57;5.47;;;;;;;0.27;75.65;101087.91;5070163;28;20181;-77
2022/12/19 00:26:23;;;;;;;4.13;3.80;;;;;;;0.26;75.85;101079.03;5070192;28;20417;-77
2022/12/19 00:28:52;;;;;;;9.73;4.27;;;;;;;0.26;75.86;101081.72;5070094;28;20464;-77
2022/12/19 00:31:18;;;;;;;6.73;6.13;;;;;;;0.21;75.95;101089.66;5070165;28;20900;-76
2022/12/19 00:33:44;;;;;;;7.10;5.07;;;;;;;0.21;75.97;101080.78;5070307;28;20416;-77
2022/12/19 00:36:12;;;;;;;7.70;6.83;;;;;;;0.19;76.31;101086.38;5070086;28;20420;-76
2022/12/19 00:38:37;;;;;;;11.27;6.47;;;;;;;0.22;76.41;101067.09;5070171;28;20201;-79
2022/12/19 00:41:08;;;;;;;8.63;5.23;;;;;;;0.28;76.84;101063.50;5071726;28;20413;-78
2022/12/19 00:43:33;;;;;;;9.07;6.43;;;;;;;0.36;77.02;101062.38;5073916;28;20231;-78
2022/12/19 00:46:02;;;;;;;7.07;6.40;;;;;;;0.33;76.83;101062.00;5074213;28;20167;-74
2022/12/19 00:48:29;;;;;;;5.83;5.10;;;;;;;0.31;77.48;101067.63;5072956;28;20239;-74
2022/12/19 00:51:05;;;;;;;5.77;4.63;;;;;;;0.28;78.01;101073.44;5074201;28;20409;-74
2022/12/19 00:53:30;;;;;;;7.27;6.57;;;;;;;0.24;78.49;101075.75;5073763;28;20963;-75
2022/12/19 00:55:56;;;;;;;12.87;8.10;;;;;;;0.21;79.34;101065.47;5073825;28;20441;-74
2022/12/19 00:58:22;;;;;;;8.37;7.47;;;;;;;0.19;80.04;101067.56;5073811;28;20171;-75
2022/12/19 01:00:47;;;;;;;7.57;6.53;;;;;;;0.18;81.23;101071.31;5072458;28;20174;-74
2022/12/19 01:03:13;;;;;;;7.07;5.00;;;;;;;0.20;82.25;101087.19;5073395;28;20437;-74
2022/12/19 01:05:38;;;;;;;8.73;5.37;;;;;;;0.21;82.77;101075.41;5073634;28;20627;-75
2022/12/19 01:08:04;;;;;;;7.67;6.30;;;;;;;0.18;84.16;101078.53;5073600;28;20393;-75
2022/12/19 01:10:29;;;;;;;5.30;4.23;;;;;;;0.16;84.58;101078.78;5073648;28;20604;-75
2022/12/19 01:12:54;;;;;;;4.43;4.03;;;;;;;0.09;85.40;101080.72;5073060;28;20166;-74
2022/12/19 01:15:20;;;;;;;11.23;7.63;;;;;;;0.05;86.79;101082.22;5073831;28;20586;-74
2022/12/19 01:17:47;;;;;;;8.60;5.23;;;;;;;0.00;87.08;101074.03;5073488;28;20253;-75
2022/12/19 01:20:14;;;;;;;8.77;6.03;;;;;;;-0.05;88.05;101069.31;5073484;28;20174;-75
2022/12/19 01:22:39;;;;;;;7.20;5.53;;;;;;;-0.09;88.45;101080.75;5073257;28;20900;-76
2022/12/19 01:25:05;;;;;;;8.23;6.97;;;;;;;-0.14;89.27;101083.28;5073318;28;20417;-74
2022/12/19 01:27:30;;;;;;;10.77;8.80;;;;;;;-0.17;89.51;101086.41;5073216;28;20175;-75
2022/12/19 01:29:56;;;;;;;7.33;3.33;;;;;;;-0.17;90.26;101086.41;5073223;28;20518;-76
2022/12/19 01:32:22;;;;;;;8.77;5.17;;;;;;;-0.18;90.16;101080.22;5073290;28;20166;-74
2022/12/19 01:34:48;;;;;;;6.10;5.43;;;;;;;-0.17;90.35;101084.53;5073048;28;20676;-74
2022/12/19 01:37:16;;;;;;;9.13;8.33;;;;;;;-0.17;90.65;101081.84;5073022;28;20409;-74
2022/12/19 01:39:41;;;;;;;9.43;7.47;;;;;;;-0.17;90.08;101078.34;5072089;28;20212;-74
2022/12/19 01:42:14;;;;;;;13.30;7.70;;;;;;;-0.15;90.60;101073.56;5073062;28;20448;-74
2022/12/19 01:45:06;;;;;;;3.57;3.30;;;;;;;-0.13;90.49;101074.19;5072863;28;20163;-76
2022/12/19 01:47:36;;;;;;;13.17;8.80;;;;;;;-0.09;90.62;101048.53;5072862;28;20420;-74
2022/12/19 01:50:02;;;;;;;4.87;3.17;;;;;;;-0.04;90.82;101048.66;5073150;28;20424;-74
2022/12/19 01:52:28;;;;;;;8.80;7.40;;;;;;;-0.08;90.76;101050.97;5072473;28;20448;-74
2022/12/19 01:54:54;;;;;;;9.30;6.53;;;;;;;-0.09;90.88;101056.56;5072142;28;20175;-76
2022/12/19 01:57:20;;;;;;;8.53;5.23;;;;;;;-0.07;90.62;101049.94;5072047;28;20928;-74
2022/12/19 01:59:52;;;;;;;8.03;7.30;;;;;;;-0.05;91.31;101047.00;5072526;28;20179;-78
2022/12/19 02:02:37;;;;;;;7.30;6.70;;;;;;;-0.04;91.79;101046.78;5073494;28;20181;-77
2022/12/19 02:05:03;;;;;;;6.47;5.87;;;;;;;-0.08;92.12;101039.41;5081562;28;20424;-79
2022/12/19 02:07:30;;;;;;;7.13;6.43;;;;;;;-0.06;92.85;101051.56;5071322;28;20421;-79
2022/12/19 02:09:57;;;;;;;7.60;6.90;;;;;;;-0.06;93.15;101054.25;5071203;28;20553;-79
2022/12/19 02:12:28;;;;;;;7.63;5.43;;;;;;;-0.04;93.60;101048.66;5072246;28;20904;-79
2022/12/19 02:14:56;;;;;;;8.43;6.83;;;;;;;0.03;93.62;101048.59;5072445;28;20413;-78
2022/12/19 02:17:44;;;;;;;7.33;6.63;;;;;;;0.07;93.78;101037.16;5072377;28;20425;-78
2022/12/19 02:20:33;;;;;;;7.47;5.53;;;;;;;0.11;93.79;101032.94;5072433;28;20830;-79
2022/12/19 02:23:22;;;;;;;8.50;6.07;;;;;;;0.15;93.41;101023.41;5070776;28;20482;-79
2022/12/19 02:26:01;;;;;;;7.40;6.70;;;;;;;0.21;92.87;101021.66;5072104;28;20442;-79
2022/12/19 02:28:58;;;;;;;8.67;7.87;;;;;;;0.23;92.88;101016.88;5071156;28;20460;-79
2022/12/19 02:31:34;;;;;;;14.07;10.03;;;;;;;0.27;92.92;101005.44;5072253;28;20181;-80
2022/12/19 02:34:25;;;;;;;10.87;9.00;;;;;;;0.35;92.55;101000.78;5071873;28;20425;-78
2022/12/19 02:37:16;;;;;;;11.27;8.13;;;;;;;0.41;91.98;101005.22;5072016;28;20413;-80
2022/12/19 02:39:49;;;;;;;10.30;9.30;;;;;;;0.44;92.56;101011.00;5072119;28;20413;-78
2022/12/19 02:42:24;;;;;;;6.27;5.77;;;;;;;0.47;92.00;100994.41;5072543;28;20417;-79
2022/12/19 02:44:51;;;;;;;13.10;8.53;;;;;;;0.54;91.49;100995.09;5071555;28;20419;-79
2022/12/19 02:47:19;;;;;;;4.30;3.90;;;;;;;0.62;91.17;101003.88;5071720;28;20433;-78
2022/12/19 02:49:44;;;;;;;8.07;7.27;;;;;;;0.61;90.62;100978.88;5071881;28;20535;-79
2022/12/19 02:52:10;;;;;;;6.33;5.00;;;;;;;0.62;90.43;100982.38;5072003;28;20208;-78
2022/12/19 02:54:36;;;;;;;10.27;5.93;;;;;;;0.65;90.26;100993.47;5071322;28;20205;-78
2022/12/19 02:57:18;;;;;;;9.47;8.03;;;;;;;0.64;89.99;101001.78;5071564;28;20171;-78
2022/12/19 03:00:02;;;;;;;7.67;6.90;;;;;;;0.66;90.23;101000.50;5071777;28;20467;-78
2022/12/19 03:02:43;;;;;;;5.23;4.73;;;;;;;0.67;90.30;101002.13;5071252;28;20405;-79
2022/12/19 03:05:34;;;;;;;5.27;4.77;;;;;;;0.67;90.29;100998.63;5071180;28;20241;-79
2022/12/19 03:08:24;;;;;;;0.93;0.93;;;;;;;0.70;90.11;100998.16;5071328;28;20246;-79
2022/12/19 03:11:08;;;;;;;6.40;5.80;;;;;;;0.67;90.25;100988.69;5071390;28;20162;-79
2022/12/19 03:13:35;;;;;;;7.27;3.57;;;;;;;0.70;89.74;100971.25;5070907;28;20848;-79
2022/12/19 03:16:02;;;;;;;7.73;6.17;;;;;;;0.74;90.22;100965.22;5071123;28;20908;-79
2022/12/19 03:18:30;;;;;;;7.17;4.03;;;;;;;0.77;90.09;100964.72;5071519;28;20425;-79
2022/12/19 03:21:05;;;;;;;6.23;4.47;;;;;;;0.79;90.21;100980.63;5071477;28;20401;-78
2022/12/19 03:23:31;;;;;;;9.40;7.03;;;;;;;0.80;90.33;100974.19;5070874;28;20412;-78
2022/12/19 03:26:02;;;;;;;8.33;5.17;;;;;;;0.80;90.21;100987.66;5071391;28;20401;-77
2022/12/19 03:28:52;;;;;;;10.87;6.73;;;;;;;0.78;90.12;100989.75;5071556;28;20605;-74
2022/12/19 03:31:21;;;;;;;8.13;6.93;;;;;;;0.74;90.25;100983.22;5040824;28;20473;-74
2022/12/19 03:33:49;;;;;;;11.07;9.23;;;;;;;0.73;90.20;100995.84;5072224;28;20421;-73
2022/12/19 03:36:20;;;;;;;5.07;4.57;;;;;;;0.72;90.25;100991.50;5073459;28;20494;-74
2022/12/19 03:38:46;;;;;;;5.87;5.07;;;;;;;0.68;90.35;100978.75;5070941;28;20941;-73
2022/12/19 03:41:14;;;;;;;2.73;2.60;;;;;;;0.68;90.27;100984.94;5070836;28;20778;-74
2022/12/19 03:43:43;;;;;;;9.90;7.90;;;;;;;0.68;91.00;100974.19;5070818;28;20409;-75
2022/12/19 03:46:25;;;;;;;17.47;6.40;;;;;;;0.74;90.84;100975.16;5070659;28;20515;-75
2022/12/19 03:48:52;;;;;;;3.80;3.53;;;;;;;0.79;90.61;100961.81;5070699;28;20456;-74
2022/12/19 03:51:32;;;;;;;5.20;3.47;;;;;;;0.81;90.56;100959.69;5071025;28;20186;-73
2022/12/19 03:54:01;;;;;;;13.10;7.83;;;;;;;0.82;90.79;100962.16;5070499;28;20900;-73
2022/12/19 03:56:50;;;;;;;8.80;7.97;;;;;;;0.88;90.27;100971.19;5070621;28;20413;-74
2022/12/19 03:59:23;;;;;;;8.07;5.33;;;;;;;0.89;90.30;100967.44;5069438;28;20761;-73
2022/12/19 04:01:51;;;;;;;5.77;4.53;;;;;;;0.89;89.90;100965.56;5070603;28;20413;-74
2022/12/19 04:04:17;;;;;;;3.73;3.40;;;;;;;0.89;89.95;100962.06;5070351;28;20432;-73
2022/12/19 04:06:44;;;;;;;5.30;3.63;;;;;;;0.90;90.17;100971.75;5070451;28;20818;-74
2022/12/19 04:09:11;;;;;;;14.17;9.93;;;;;;;0.96;89.70;100967.28;5070775;28;20500;-74
2022/12/19 04:11:40;;;;;;;7.03;6.43;;;;;;;0.97;89.54;100968.94;5070613;28;20429;-74
2022/12/19 04:14:22;;;;;;;7.23;5.43;;;;;;;0.95;89.31;100946.84;5070093;28;20431;-73
2022/12/19 04:17:01;;;;;;;9.93;8.03;;;;;;;1.02;89.00;100956.44;5073928;28;20401;-74
2022/12/19 04:19:34;;;;;;;5.73;4.77;;;;;;;1.03;89.24;100951.88;5074649;28;20400;-74
2022/12/19 04:22:06;;;;;;;11.20;7.47;;;;;;;1.01;88.68;100956.63;5074496;28;20496;-75
2022/12/19 04:24:36;;;;;;;2.87;1.77;;;;;;;0.96;89.15;100954.66;5074248;28;20397;-73
2022/12/19 04:27:05;;;;;;;6.10;5.17;;;;;;;0.93;89.72;100949.75;5074628;28;20474;-73
2022/12/19 04:29:32;;;;;;;0.93;0.93;;;;;;;0.92;89.56;100921.22;5074298;28;20252;-74
2022/12/19 04:32:00;;;;;;;12.53;6.63;;;;;;;0.93;89.52;100930.94;5074227;28;20186;-74
2022/12/19 04:34:25;;;;;;;3.10;2.90;;;;;;;0.97;89.54;100933.97;5074356;28;20478;-74
2022/12/19 04:36:51;;;;;;;0.73;0.73;;;;;;;0.94;89.58;100919.13;5074134;28;20642;-75
2022/12/19 04:39:16;;;;;;;6.20;5.53;;;;;;;0.98;89.79;100931.03;5074268;28;20634;-73
2022/12/19 04:41:41;;;;;;;0.63;0.63;;;;;;;0.98;89.90;100914.88;5074321;28;20206;-73
2022/12/19 04:44:07;;;;;;;0.20;0.20;;;;;;;0.92;90.11;100910.47;5073680;28;20537;-74
2022/12/19 04:46:32;;;;;;;3.50;0.53;;;;;;;0.93;90.30;100906.72;5074020;28;20233;-74
2022/12/19 04:48:57;;;;;;;0.97;0.97;;;;;;;0.95;90.12;100918.06;5073931;28;20307;-74
2022/12/19 04:51:22;;;;;;;0.30;0.30;;;;;;;0.97;90.56;100907.88;5073994;28;20190;-73
2022/12/19 04:53:48;;;;;;;4.47;4.10;;;;;;;1.05;90.78;100904.03;5072635;28;20174;-74
2022/12/19 04:56:13;;;;;;;7.00;4.77;;;;;;;1.09;90.44;100889.84;5073765;28;20177;-73
2022/12/19 04:58:38;;;;;;;0.57;0.57;;;;;;;1.07;90.79;100875.00;5073874;28;20208;-75
2022/12/19 05:01:06;;;;;;;1.67;1.57;;;;;;;1.07;91.09;100875.00;5072366;28;20224;-74
2022/12/19 05:03:32;;;;;;;0.40;0.40;;;;;;;1.08;91.10;100855.94;5073293;28;20186;-73
2022/12/19 05:06:11;;;;;;;2.57;2.23;;;;;;;1.03;90.62;100863.91;5072210;28;20779;-74
2022/12/19 05:08:39;;;;;;;1.70;1.60;;;;;;;0.97;91.09;100864.03;5072223;28;20202;-74
2022/12/19 05:11:05;;;;;;;1.50;1.43;;;;;;;0.99;91.27;100860.03;5073491;28;20170;-74
2022/12/19 05:13:30;;;;;;;2.37;2.27;;;;;;;0.98;91.61;100860.28;5072999;28;20924;-75
2022/12/19 05:16:04;;;;;;;1.40;0.30;;;;;;;0.91;91.95;100857.72;5073394;28;20178;-74
2022/12/19 05:18:29;;;;;;;0.40;0.40;;;;;;;0.96;92.20;100847.06;5073434;28;20171;-74
2022/12/19 05:20:55;;;;;;;1.60;1.50;;;;;;;0.98;92.18;100836.06;5073480;28;20170;-74
2022/12/19 05:23:21;;;;;;;3.07;2.97;;;;;;;0.96;92.17;100835.50;5073603;28;20583;-74
2022/12/19 05:25:47;;;;;;;0.10;0.10;;;;;;;0.86;92.40;100825.31;5071836;28;20484;-73
2022/12/19 05:28:13;;;;;;;0.60;0.60;;;;;;;0.93;92.79;100834.09;5071565;28;20198;-73
2022/12/19 05:30:38;;;;;;;0.30;0.30;;;;;;;0.88;92.65;100837.50;5073330;28;20202;-73
2022/12/19 05:33:03;;;;;;;0.30;0.20;;;;;;;0.92;92.87;100835.16;5073252;28;20585;-75
2022/12/19 05:35:29;;;;;;;1.60;1.60;;;;;;;0.89;93.27;100830.25;5071719;28;20240;-74
2022/12/19 05:37:54;;;;;;;1.70;1.60;;;;;;;0.93;93.60;100834.09;5073354;28;20170;-73
2022/12/19 05:40:19;;;;;;;2.87;2.67;;;;;;;1.02;93.68;100837.25;5073391;28;20183;-74
2022/12/19 05:42:45;;;;;;;5.67;3.90;;;;;;;1.02;93.79;100848.00;5072751;28;20243;-73
2022/12/19 05:45:10;;;;;;;1.73;1.67;;;;;;;1.03;93.66;100838.88;5073006;28;20715;-73
2022/12/19 05:47:36;;;;;;;1.23;0.97;;;;;;;1.02;93.66;100839.94;5072861;28;20175;-73
2022/12/19 05:50:02;;;;;;;0.67;0.67;;;;;;;0.98;94.11;100831.50;5073099;28;20665;-74
2022/12/19 05:52:27;;;;;;;5.10;4.60;;;;;;;1.07;94.59;100835.47;5072786;28;20579;-73
2022/12/19 05:54:52;;;;;;;1.17;1.17;;;;;;;1.13;94.72;100831.81;5072638;28;20177;-72
2022/12/19 05:57:18;;;;;;;1.63;1.53;;;;;;;1.02;94.99;100819.22;5072803;28;20174;-74
2022/12/19 05:59:43;;;;;;;4.53;1.80;;;;;;;1.08;95.95;100823.63;5071350;28;20701;-74
2022/12/19 06:02:08;;;;;;;2.57;2.57;;;;;;;1.09;96.93;100814.50;5072574;28;20672;-73
2022/12/19 06:04:37;;;;;;;0.00;0.00;;;;;;;1.05;98.04;100813.38;5072241;28;20601;-74
2022/12/19 06:07:03;;;;;;;0.00;0.00;;;;;;;1.07;98.73;100810.44;5072592;28;20626;-74
2022/12/19 06:09:28;;;;;;;4.93;3.27;;;;;;;1.18;99.17;100812.25;5072363;28;20213;-73
2022/12/19 06:11:53;;;;;;;2.23;1.83;;;;;;;1.25;98.96;100809.41;5072285;28;20534;-75
2022/12/19 06:14:19;;;;;;;6.90;6.17;;;;;;;1.23;99.60;100804.28;5072017;28;20202;-74
2022/12/19 06:16:44;;;;;;;3.33;3.13;;;;;;;1.23;100.00;100796.22;5072871;28;20166;-73
2022/12/19 06:19:10;;;;;;;6.53;5.77;;;;;;;1.22;100.00;100788.38;5072502;28;20392;-73
2022/12/19 06:21:35;;;;;;;4.47;1.43;;;;;;;1.19;100.00;100793.19;5070929;28;20269;-73
2022/12/19 06:24:00;;;;;;;1.53;1.47;;;;;;;1.21;100.00;100789.44;5071985;28;20220;-74
2022/12/19 06:26:26;;;;;;;5.87;4.90;;;;;;;1.22;100.00;100775.75;5070872;28;20178;-73
2022/12/19 06:28:53;;;;;;;1.37;1.30;;;;;;;1.22;100.00;100764.16;5072200;28;20625;-73
2022/12/19 06:31:20;;;;;;;0.00;0.00;;;;;;;1.26;100.00;100760.72;5070641;28;20223;-75
2022/12/19 06:33:45;;;;;;;1.07;1.07;;;;;;;1.30;100.00;100759.22;5072011;28;20179;-76
2022/12/19 06:36:16;;;;;;;6.47;5.33;;;;;;;1.35;100.00;100753.09;5071703;28;20175;-75
2022/12/19 06:38:41;;;;;;;10.73;8.33;;;;;;;1.35;100.00;100753.91;5069355;28;20201;-73
2022/12/19 06:43:52;;;;;;;6.50;5.23;;;;;;;1.36;100.00;100752.84;5071392;28;20174;-76
2022/12/19 06:46:17;;;;;;;2.83;2.63;;;;;;;1.26;100.00;100747.28;5071289;28;20174;-74
2022/12/19 06:48:43;;;;;;;1.97;1.87;;;;;;;1.37;100.00;100764.44;5071164;28;20208;-73
2022/12/19 06:51:08;;;;;;;11.37;7.40;;;;;;;1.39;100.00;100762.31;5071206;28;20175;-74
2022/12/19 06:53:34;;;;;;;0.93;0.83;;;;;;;1.31;100.00;100779.69;5070878;28;20174;-73
2022/12/19 06:55:59;;;;;;;0.67;0.67;;;;;;;1.30;100.00;100779.91;5071006;28;20249;-73
2022/12/19 06:58:25;;;;;;;0.53;0.53;;;;;;;1.27;100.00;100775.00;5071403;28;20261;-74
2022/12/19 07:00:50;;;;;;;8.77;7.67;;;;;;;1.36;100.00;100771.69;5071306;28;20178;-75
2022/12/19 07:03:29;;;;;;;1.73;1.47;;;;;;;1.35;100.00;100771.94;5069255;28;20190;-74
2022/12/19 07:05:55;;;;;;;7.50;6.77;;;;;;;1.32;100.00;100762.47;5070901;28;20170;-73
2022/12/19 07:08:20;;;;;;;5.30;4.80;;;;;;;1.33;100.00;100755.22;5070849;28;20213;-74
2022/12/19 07:10:45;;;;;;;5.20;3.83;;;;;;;1.32;100.00;100754.41;5070899;28;20459;-73
2022/12/19 07:13:11;;;;;;;7.97;6.97;;;;;;;1.33;100.00;100752.53;5070242;28;20206;-74
2022/12/19 07:15:36;;;;;;;6.83;5.17;;;;;;;1.32;100.00;100758.97;5070908;28;20216;-73
2022/12/19 07:18:04;;;;;;;8.73;6.83;;;;;;;1.29;100.00;100762.13;5070710;28;20490;-73
2022/12/19 07:20:31;;;;;;;3.03;2.57;;;;;;;1.34;100.00;100752.28;5070591;28;20252;-74
2022/12/19 07:22:57;;;;;;;0.27;0.20;;;;;;;1.37;100.00;100761.75;5070392;28;20175;-73
2022/12/19 07:25:22;;;;;;;4.60;4.17;;;;;;;1.38;100.00;100761.50;5070942;28;20182;-72
2022/12/19 07:27:48;;;;;;;5.30;4.17;;;;;;;1.39;100.00;100765.00;5069494;28;20177;-72
2022/12/19 07:30:13;;;;;;;0.17;0.17;;;;;;;1.36;100.00;100760.91;5069160;28;20275;-73
2022/12/19 07:32:38;;;;;;;8.70;5.23;;;;;;;1.41;100.00;100760.19;5070266;28;20171;-74
2022/12/19 07:35:05;;;;;;;0.10;0.10;;;;;;;1.42;100.00;100759.94;5070517;28;20174;-73
2022/12/19 07:37:30;;;;;;;5.50;4.87;;;;;;;1.45;100.00;100770.25;5070463;28;20175;-75
2022/12/19 07:39:56;;;;;;;8.90;6.53;;;;;;;1.48;100.00;100767.06;5069372;28;20182;-73
2022/12/19 07:42:21;;;;;;;11.73;9.60;;;;;;;1.52;100.00;100769.25;5070411;28;20596;-75
2022/12/19 07:44:46;;;;;;;6.90;3.07;;;;;;;1.53;100.00;100765.50;5070344;28;20658;-73
2022/12/19 07:47:12;;;;;;;0.10;0.10;;;;;;;1.53;100.00;100760.13;5070351;28;20174;-73
2022/12/19 07:49:37;;;;;;;12.27;9.73;;;;;;;1.56;100.00;100770.41;5070425;28;20209;-74
2022/12/19 07:52:02;;;;;;;16.60;4.87;;;;;;;1.58;100.00;100766.41;5068973;28;20265;-76
2022/12/19 07:54:28;;;;;;;16.10;9.40;;;;;;;1.61;100.00;100760.53;5070156;28;20235;-79
2022/12/19 07:56:53;;;;;;;10.90;9.13;;;;;;;1.64;100.00;100761.94;5070398;28;20213;-74
2022/12/19 07:59:18;;;;;;;14.57;5.93;;;;;;;1.61;100.00;100770.50;5070666;28;20202;-80
2022/12/19 08:01:44;;;;;;;13.50;11.67;;;;;;;1.66;100.00;100774.09;5070793;28;20663;-75
2022/12/19 08:04:09;;;;;;;3.43;3.13;;;;;;;1.68;100.00;100771.97;5069004;28;20638;-79
2022/12/19 08:06:34;;;;;;;12.47;9.30;;;;;;;1.68;100.00;100771.97;5069365;28;20184;-75
2022/12/19 08:09:00;;;;;;;7.63;5.70;;;;;;;1.72;100.00;100774.97;5070524;28;20386;-80
2022/12/19 08:11:26;;;;;;;3.73;3.43;;;;;;;1.73;100.00;100774.72;5070381;28;20639;-78
2022/12/19 08:13:52;;;;;;;3.57;3.33;;;;;;;1.73;100.00;100771.22;5070020;28;20581;-76
2022/12/19 08:16:18;;;;;;;11.00;8.20;;;;;;;1.74;100.00;100776.38;5070784;28;20507;-75
2022/12/19 08:18:44;;;;;;;5.67;3.67;;;;;;;1.72;100.00;100766.88;5070832;28;20219;-75
2022/12/19 08:21:09;;;;;;;7.47;6.00;;;;;;;1.73;100.00;100766.63;5070480;28;20179;-75
2022/12/19 08:23:35;;;;;;;8.90;8.10;;;;;;;1.75;100.00;100756.47;5070478;28;20182;-76
2022/12/19 08:26:02;;;;;;;2.23;2.03;;;;;;;1.78;100.00;100758.66;5070591;28;20531;-75
2022/12/19 08:28:31;;;;;;;8.33;3.33;;;;;;;1.79;100.00;100763.00;5070386;28;20202;-78
2022/12/19 08:30:58;;;;;;;2.20;2.10;;;;;;;1.88;100.00;100758.03;5070435;28;20421;-77
2022/12/19 08:33:23;;;;;;;4.03;2.63;;;;;;;1.88;100.00;100760.72;5070135;28;20228;-75
2022/12/19 08:35:49;;;;;;;3.40;3.17;;;;;;;1.94;100.00;100764.28;5070342;28;20183;-79
2022/12/19 08:38:14;;;;;;;11.53;5.53;;;;;;;1.92;100.00;100761.84;5070393;28;20631;-74
2022/12/19 08:40:39;;;;;;;5.63;4.60;;;;;;;1.96;100.00;100767.53;5070140;28;20305;-75
2022/12/19 08:43:05;;;;;;;17.23;10.67;;;;;;;2.02;100.00;100761.16;5070054;28;20181;-75
2022/12/19 08:45:30;;;;;;;9.87;8.93;;;;;;;2.04;100.00;100754.47;5070140;28;20178;-74
2022/12/19 08:47:55;;;;;;;8.87;7.80;;;;;;;2.08;100.00;100754.78;5070225;28;20186;-75
2022/12/19 08:50:21;;;;;;;3.20;3.00;;;;;;;2.08;100.00;100754.78;5068881;28;20240;-74
2022/12/19 08:52:46;;;;;;;8.23;3.30;;;;;;;2.11;100.00;100762.38;5069930;28;20574;-74
2022/12/19 08:55:11;;;;;;;7.50;6.83;;;;;;;2.14;100.00;100755.69;5069926;28;20178;-75
2022/12/19 08:57:37;;;;;;;7.93;5.93;;;;;;;2.17;100.00;100747.94;5069816;28;20189;-74
2022/12/19 09:00:04;;;;;;;5.37;4.83;;;;;;;2.18;100.00;100735.28;5070229;28;20488;-74
2022/12/19 09:02:29;;;;;;;7.43;5.63;;;;;;;2.21;100.00;100751.75;5072123;28;20175;-74
2022/12/19 09:04:55;;;;;;;6.30;5.07;;;;;;;2.19;100.00;100743.09;5073749;28;20529;-74
2022/12/19 09:07:20;;;;;;;11.77;9.30;;;;;;;2.18;100.00;100746.88;5072429;28;20626;-74
2022/12/19 09:09:45;;;;;;;9.10;8.20;;;;;;;2.19;100.00;100732.31;5073561;28;20627;-74
2022/12/19 09:12:13;;;;;;;7.50;6.80;;;;;;;2.24;100.00;100729.69;5073339;28;20181;-75
2022/12/19 09:14:38;;;;;;;8.87;7.13;;;;;;;2.29;100.00;100726.22;5073400;28;20189;-75
2022/12/19 09:17:03;;;;;;;11.23;8.50;;;;;;;2.36;100.00;100721.50;5073577;28;20254;-74
2022/12/19 09:19:29;;;;;;;4.73;4.40;;;;;;;2.38;100.00;100713.97;5073896;28;20228;-73
2022/12/19 09:21:54;;;;;;;5.30;4.07;;;;;;;2.49;100.00;100706.81;5073605;28;20242;-77
2022/12/19 09:24:19;;;;;;;4.20;3.77;;;;;;;2.53;100.00;100694.47;5072917;28;20171;-74
2022/12/19 09:26:45;;;;;;;4.30;3.83;;;;;;;2.53;100.00;100703.38;5073385;28;20187;-73
2022/12/19 09:29:10;;;;;;;17.53;6.73;;;;;;;2.54;100.00;100696.09;5073528;28;20581;-75
2022/12/19 09:31:36;;;;;;;4.53;4.13;;;;;;;2.56;100.00;100694.75;5073306;28;20712;-76
2022/12/19 09:34:01;;;;;;;4.40;4.00;;;;;;;2.57;100.00;100700.97;5073159;28;20190;-78
2022/12/19 09:36:26;;;;;;;5.43;3.33;;;;;;;2.59;100.00;100693.44;5071913;28;20557;-77
2022/12/19 09:38:54;;;;;;;8.20;5.60;;;;;;;2.63;100.00;100695.41;5072012;28;20178;-74
2022/12/19 09:41:32;;;;;;;5.70;4.33;;;;;;;2.65;100.00;100687.88;5073180;28;20179;-74
2022/12/19 09:44:15;;;;;;;4.23;3.93;;;;;;;2.64;100.00;100678.16;5073052;28;20182;-73
2022/12/19 09:46:48;;;;;;;10.23;7.87;;;;;;;2.64;100.00;100688.13;5073051;28;20224;-75
2022/12/19 09:49:20;;;;;;;7.10;5.90;;;;;;;2.62;100.00;100680.28;5073339;28;20205;-75
2022/12/19 09:51:59;;;;;;;4.00;3.63;;;;;;;2.61;100.00;100683.25;5073206;28;20175;-75
2022/12/19 09:54:35;;;;;;;1.23;1.17;;;;;;;2.62;100.00;100690.25;5072706;28;20182;-75
2022/12/19 09:57:10;;;;;;;7.27;6.67;;;;;;;2.64;100.00;100691.63;5072519;28;20194;-75
2022/12/19 09:59:42;;;;;;;6.03;4.03;;;;;;;2.66;100.00;100691.38;5072368;28;20684;-75
2022/12/19 10:02:32;;;;;;;3.13;2.87;;;;;;;2.76;100.00;100688.81;5072365;28;20440;-75
2022/12/19 10:05:13;;;;;;;6.80;6.10;;;;;;;2.79;100.00;100693.69;5071089;28;20638;-79
2022/12/19 10:07:38;;;;;;;2.20;2.07;;;;;;;2.83;100.00;100689.41;5079111;28;20189;-78
2022/12/19 10:10:04;;;;;;;5.50;4.80;;;;;;;2.88;100.00;100688.63;5072395;28;20292;-79
2022/12/19 10:12:51;;;;;;;4.90;4.17;;;;;;;2.88;100.00;100681.34;5071538;28;20259;-78
2022/12/19 10:15:46;;;;;;;4.13;3.57;;;;;;;2.90;100.00;100670.31;5072049;28;20174;-79
2022/12/19 10:18:30;;;;;;;5.07;4.67;;;;;;;2.91;100.00;100686.25;5072142;28;20209;-78
2022/12/19 10:21:04;;;;;;;6.83;6.17;;;;;;;2.92;100.00;100671.69;5072208;28;20198;-79
2022/12/19 10:24:07;;;;;;;8.33;7.50;;;;;;;2.95;100.00;100668.47;5070564;28;20170;-79
2022/12/19 10:26:51;;;;;;;1.90;1.80;;;;;;;2.95;100.00;100667.66;5071986;28;20270;-77
2022/12/19 10:30:09;;;;;;;11.90;10.03;;;;;;;2.93;100.00;100654.44;5072088;28;20741;-79
2022/12/19 10:32:50;;;;;;;4.87;3.87;;;;;;;2.99;100.00;100657.97;5009559;28;20309;-78
2022/12/19 10:35:17;;;;;;;2.60;2.17;;;;;;;3.03;100.00;100655.56;5009688;28;20886;-79
2022/12/19 10:38:15;;;;;;;3.60;3.30;;;;;;;3.07;100.00;100656.72;5051682;28;20662;-78
2022/12/19 10:40:59;;;;;;;0.77;0.77;;;;;;;3.11;100.00;100652.44;5071906;28;20171;-76
2022/12/19 10:43:45;;;;;;;4.00;3.73;;;;;;;3.19;100.00;100650.09;5071435;28;20591;-76
2022/12/19 10:46:30;;;;;;;1.07;0.87;;;;;;;3.21;100.00;100639.03;5071788;28;20167;-77
2022/12/19 10:48:56;;;;;;;3.17;2.93;;;;;;;3.26;100.00;100639.88;5071773;28;20225;-77
2022/12/19 10:51:26;;;;;;;3.77;3.47;;;;;;;3.34;100.00;100635.06;5071862;28;20270;-77
2022/12/19 10:53:56;;;;;;;2.27;2.13;;;;;;;3.39;100.00;100633.22;5071826;28;20182;-77
2022/12/19 10:56:27;;;;;;;2.43;2.10;;;;;;;3.39;100.00;100630.50;5071823;28;20178;-78
2022/12/19 10:58:57;;;;;;;1.23;1.17;;;;;;;3.48;100.00;100630.84;5071686;28;20210;-77
2022/12/19 11:01:28;;;;;;;6.73;4.73;;;;;;;3.52;100.00;100632.78;5071334;28;20249;-78
2022/12/19 11:04:25;;;;;;;2.23;2.13;;;;;;;3.54;100.00;100635.22;5071134;28;20634;-78
2022/12/19 11:07:02;;;;;;;2.63;1.70;;;;;;;3.64;100.00;100626.38;5071256;28;20179;-78
2022/12/19 11:09:29;;;;;;;2.43;0.77;;;;;;;3.67;100.00;100620.44;5071981;28;20201;-77
2022/12/19 11:12:01;;;;;;;5.50;4.63;;;;;;;3.70;100.00;100619.91;5069897;28;20203;-78
2022/12/19 11:14:29;;;;;;;3.87;3.57;;;;;;;3.74;100.00;100621.81;5070652;28;20233;-77
2022/12/19 11:16:54;;;;;;;5.93;5.43;;;;;;;3.80;100.00;100612.69;5071205;28;20207;-78
2022/12/19 11:19:31;;;;;;;9.63;8.60;;;;;;;3.83;100.00;100612.16;5071112;28;20284;-77
2022/12/19 11:22:02;;;;;;;3.43;3.13;;;;;;;3.84;100.00;100608.38;5069886;28;20197;-78
2022/12/19 11:24:39;;;;;;;5.20;2.87;;;;;;;3.85;100.00;100604.59;5070632;28;20175;-77
2022/12/19 11:27:40;;;;;;;9.93;4.90;;;;;;;3.74;100.00;100602.91;5070957;28;20194;-77
2022/12/19 11:30:35;;;;;;;7.00;6.40;;;;;;;3.78;100.00;100601.31;5070991;28;20259;-79
2022/12/19 11:33:16;;;;;;;5.00;3.07;;;;;;;3.78;100.00;100590.50;5053100;28;20190;-82
2022/12/19 11:35:50;;;;;;;1.20;1.20;;;;;;;3.72;100.00;100591.53;5070977;28;20174;-82
2022/12/19 11:38:27;;;;;;;6.23;5.77;;;;;;;3.76;100.00;100589.13;5070882;28;20166;-83
2022/12/19 11:40:56;;;;;;;0.77;0.77;;;;;;;3.78;100.00;100595.09;5070921;28;20253;-80
2022/12/19 11:43:39;;;;;;;11.40;6.13;;;;;;;3.85;100.00;100592.97;5070273;28;20664;-79